Weather observations for the past three days for
Blakely, Early County Airport
Imperial (Metric)
Date Time (edt) Wind (mph) Vis. (mi.) Weather Sky Cond. Temperature (ºF) Relative Humidity Wind Chill (°F) Heat Index (°F) Pressure Precipitation (in)
Air Dwpt 6 hour altimeter (in) sea level (mb) 1 hr 3 hr 6 hr
Max. Min.
06 10:55 Calm 10.00 Fair CLR 84.2 73.4 70% 91 29.93 0.0
06 10:35 Calm 10.00 Fair CLR 84.2 75.2 74% 92 29.93 0.0
06 10:15 Calm 10.00 Fair CLR 82.4 73.4 74% 88 29.92 0.0
06 09:55 SW 3 10.00 Fair CLR 80.6 73.4 79% 85 29.92 0.0
06 09:35 Calm 10.00 Fair CLR 78.8 73.4 84% 82 29.93 0.0
06 09:15 Calm 10.00 Fair CLR 77 73.4 89% 78 29.93 0.0
06 08:55 Calm 10.00 Fair CLR 77 73.4 89% 78 29.93 0.0
06 08:35 Calm 10.00 Fair CLR 75.2 71.6 89% 75 29.93 0.0
06 08:15 Calm 10.00 Fair CLR 73.4 71.6 94% 29.92 0.0
06 07:55 Calm 10.00 Fair CLR 71.6 69.8 94% 29.92 0.0
06 07:35 Calm 10.00 Fair CLR 71.6 69.8 94% 29.92 0.0
06 07:15 Calm 10.00 Partly Cloudy SCT100 71.6 69.8 94% 29.92 0.0
06 06:55 Calm 10.00 Mostly Cloudy BKN100 71.6 69.8 94% 29.91 0.0
06 06:35 Calm 10.00 Partly Cloudy SCT100 71.6 69.8 94% 29.9 0.0
06 06:15 Calm 10.00 Fair CLR 71.6 69.8 94% 29.9 0.0
06 05:55 Calm 10.00 Fair CLR 71.6 69.8 94% 29.89 0.0
06 05:35 Calm 10.00 Fair CLR 71.6 69.8 94% 29.88 0.0
06 05:15 Calm 10.00 Fair CLR 71.6 69.8 94% 29.89 0.0
06 04:55 Calm 10.00 Fair CLR 71.6 69.8 94% 29.88 0.0
06 04:35 Calm 10.00 Fair CLR 71.6 69.8 94% 29.88 0.0
06 04:15 Calm 10.00 Fair CLR 71.6 71.6 100% 29.88 0.0
06 03:55 Calm 10.00 Fair CLR 71.6 71.6 100% 29.88 0.0
06 03:35 Calm 10.00 Fair CLR 73.4 71.6 94% 29.89 0.0
06 03:15 Calm 7.00 Partly Cloudy SCT047 73.4 71.6 94% 29.89 0.0
06 02:55 Calm 10.00 Overcast OVC045 73.4 71.6 94% 29.89 0.0
06 02:35 Calm 10.00 Mostly Cloudy BKN045 73.4 71.6 94% 29.89 0.0
06 02:15 Calm 10.00 Partly Cloudy SCT045 73.4 71.6 94% 29.9 0.0
06 01:55 Calm 10.00 Fair CLR 73.4 71.6 94% 29.9 0.0
06 01:35 Calm 10.00 Partly Cloudy SCT044 SCT050 73.4 71.6 94% 29.9 0.0
06 01:15 Calm 10.00 Mostly Cloudy BKN044 BKN050 73.4 71.6 94% 29.91 0.0
06 00:55 Calm 10.00 Fair CLR 73.4 71.6 94% 29.91 0.0
06 00:35 Calm 10.00 Fair CLR 73.4 71.6 94% 29.91 0.0
06 00:15 Calm 10.00 Fair CLR 75.2 71.6 89% 75 29.9 0.0
05 23:55 Calm 10.00 Fair CLR 75.2 73.4 94% 74 29.92 0.0
05 23:35 Calm 10.00 Fair CLR 77 73.4 89% 78 29.92 0.0
05 23:15 Calm 10.00 Fair CLR 77 73.4 89% 78 29.93 0.0
05 22:55 Calm 10.00 Fair CLR 77 73.4 89% 78 29.92 0.0
05 22:35 Calm 10.00 Fair CLR 77 73.4 89% 78 29.91 0.0
05 22:15 Calm 10.00 Partly Cloudy SCT042 77 73.4 89% 78 29.91 0.0
05 21:55 Calm 10.00 Mostly Cloudy BKN042 77 73.4 89% 78 29.9 0.0
05 21:35 Calm 10.00 Fair CLR 77 73.4 89% 78 29.89 0.0
05 21:15 Calm 10.00 Fair CLR 77 73.4 89% 78 29.88 0.0
05 20:55 Calm 10.00 Fair CLR 77 75.2 94% 78 29.87 0.0
05 20:35 Calm 10.00 Fair CLR 78.8 75.2 89% 82 29.87 0.0
05 20:15 Calm 10.00 Fair CLR 78.8 77 94% 83 29.87 0.0
05 19:55 Calm 10.00 Fair CLR 80.6 77 89% 87 29.87 0.0
05 19:35 Calm 10.00 Fair CLR 80.6 77 89% 87 29.87 0.0
05 19:15 Calm 10.00 Fair CLR 80.6 75.2 84% 86 29.88 0.0
05 18:55 Calm 10.00 Fair CLR 80.6 75.2 84% 86 29.88 0.0
05 18:35 Calm 10.00 Fair CLR 80.6 75.2 84% 86 29.88 0.0
05 18:15 Calm 10.00 Fair CLR 80.6 75.2 84% 86 29.88 0.0
05 17:55 Calm 10.00 Thunderstorm in Vicinity CLR 80.6 75.2 84% 86 29.89 0.0
05 17:35 Calm 10.00 Fair CLR 78.8 73.4 84% 82 29.89 0.0
05 17:15 Calm 10.00 Partly Cloudy SCT025 SCT032 SCT042 78.8 73.4 84% 82 29.89 0.0
05 16:55 E 5 10.00 Light Rain SCT029 BKN046 OVC095 77 73.4 89% 78 29.89 0.0 0.1
05 16:35 SW 3 10.00 Drizzle SCT055 BKN095 OVC110 77 73.4 89% 78 29.9 0.0 0.09
05 16:15 S 6 5.00 Light Rain SCT010 BKN060 OVC110 77 73.4 89% 78 29.91 0.0 0.08
05 15:55 SW 9 G 17 1.25 Heavy Rain SCT010 BKN029 OVC047 78.8 71.6 79% 82 29.94 0.0 0.31
05 13:55 SE 3 10.00 Partly Cloudy SCT050 86 71.6 62% 92 29.95 0.0
05 13:35 Calm 10.00 Partly Cloudy SCT018 SCT050 86 73.4 66% 93 29.96 0.0
05 13:15 NE 5 10.00 Partly Cloudy SCT018 SCT050 86 73.4 66% 93 29.97 0.0
05 12:55 Calm 10.00 Partly Cloudy SCT017 SCT035 SCT042 82.4 73.4 74% 88 29.97 0.0 0.02
05 12:35 Calm 4.00 Light Rain SCT017 SCT035 BKN055 80.6 73.4 79% 85 29.98 0.0 0.02
05 12:15 S 5 10.00 Partly Cloudy SCT065 82.4 73.4 74% 88 29.99 0.0
05 11:55 Calm 10.00 Overcast SCT014 SCT050 OVC065 80.6 73.4 79% 85 29.99 0.0
05 11:35 Calm 10.00 Overcast BKN014 OVC065 80.6 73.4 79% 85 29.99 0.0
05 11:15 Calm 10.00 Overcast BKN012 OVC065 80.6 73.4 79% 85 29.99 0.0
05 10:55 S 3 10.00 Overcast BKN012 BKN048 OVC065 78.8 73.4 84% 82 29.99 0.0
05 10:35 Calm 10.00 Overcast SCT008 BKN048 OVC065 78.8 73.4 84% 82 29.99 0.0
05 10:15 Calm 10.00 Overcast OVC006 77 71.6 83% 78 29.99 0.0
05 09:55 Calm 10.00 Overcast OVC006 75.2 71.6 89% 75 30 0.0
05 09:35 Calm 10.00 Overcast BKN006 OVC055 73.4 71.6 94% 29.99 0.0
05 09:15 Calm 10.00 Overcast BKN004 BKN025 OVC055 71.6 71.6 100% 30 0.0
05 08:55 Calm 10.00 Overcast OVC004 71.6 69.8 94% 29.99 0.0
05 08:35 Calm 10.00 Overcast OVC004 71.6 69.8 94% 29.99 0.0
05 08:15 Calm 1.75 Fog/Mist OVC002 71.6 69.8 94% 29.99 0.0
05 07:55 Calm 0.75 Fog/Mist OVC002 71.6 69.8 94% 29.98 0.0
05 07:35 Calm 1.00 Fog/Mist OVC002 71.6 69.8 94% 29.97 0.0
05 07:15 Calm 1.50 Fog/Mist OVC002 71.6 69.8 94% 29.96 0.0
05 06:55 SW 5 1.75 Fog/Mist OVC002 71.6 69.8 94% 29.95 0.0
05 06:35 Calm 1.50 Fog/Mist OVC002 71.6 69.8 94% 29.95 0.0
05 06:15 Calm 1.00 Fog/Mist OVC002 71.6 69.8 94% 29.94 0.0
05 05:55 Calm 5.00 Fog/Mist OVC002 71.6 69.8 94% 29.95 0.0
05 05:35 Calm 7.00 Overcast OVC002 71.6 69.8 94% 29.95 0.0
05 05:15 Calm 7.00 Overcast OVC002 71.6 69.8 94% 29.95 0.0
05 04:55 Calm 10.00 Overcast OVC002 71.6 69.8 94% 29.95 0.0
05 04:35 Calm 10.00 Mostly Cloudy BKN004 71.6 69.8 94% 29.95 0.0
05 04:15 Calm 10.00 Fair CLR 71.6 69.8 94% 29.95 0.0
05 03:55 Calm 10.00 Fair CLR 71.6 69.8 94% 29.94 0.0
05 03:35 Calm 10.00 Partly Cloudy SCT008 71.6 69.8 94% 29.95 0.0
05 03:15 Calm 10.00 Fair CLR 71.6 69.8 94% 29.94 0.0
05 02:55 Calm 10.00 Fair CLR 71.6 69.8 94% 29.95 0.0
05 02:35 Calm 10.00 Fair CLR 71.6 69.8 94% 29.95 0.0
05 02:15 Calm 10.00 Partly Cloudy SCT002 71.6 69.8 94% 29.95 0.0
05 01:55 Calm 10.00 Partly Cloudy SCT002 71.6 71.6 100% 29.95 0.0
05 01:35 Calm 10.00 Fair CLR 71.6 69.8 94% 29.95 0.0
05 01:15 Calm 7.00 Fair CLR 71.6 71.6 100% 29.95 0.0
05 00:55 Calm 7.00 Fair CLR 73.4 71.6 94% 29.96 0.0 0.01
05 00:35 Calm 10.00 Fair CLR 73.4 71.6 94% 29.97 0.0 0.01
05 00:15 Calm 7.00 Fair CLR 73.4 71.6 94% 29.96 0.0 0.01
04 23:55 Calm 10.00 Partly Cloudy SCT003 73.4 71.6 94% 29.97 0.0
04 23:35 Calm 10.00 Fair CLR 73.4 71.6 94% 29.97 0.0
04 23:15 Calm 10.00 Fair CLR 73.4 71.6 94% 29.98 0.0
04 22:55 S 3 10.00 Light Rain SCT085 SCT100 73.4 71.6 94% 29.98 0.0 0.01
04 22:35 Calm 10.00 Light Rain SCT042 BKN070 OVC080 75.2 71.6 89% 75 29.99 0.0 0.01
04 22:15 Calm 10.00 Light Rain SCT055 BKN110 75.2 71.6 89% 75 30 0.0
04 21:55 Calm 10.00 Light Rain SCT090 SCT110 77 71.6 83% 78 29.99 0.0
04 21:35 S 3 10.00 Partly Cloudy SCT090 SCT110 77 71.6 83% 78 29.99 0.0
04 21:15 SW 6 10.00 Fair CLR 77 71.6 83% 78 29.98 0.0
04 20:55 SW 5 10.00 Thunderstorm in Vicinity SCT017 77 71.6 83% 78 29.97 0.0
04 20:35 S 5 10.00 Partly Cloudy SCT100 77 73.4 89% 78 29.97 0.0
04 20:15 Calm 10.00 Rain SCT085 BKN110 78.8 73.4 84% 82 29.96 0.0
04 19:55 E 3 10.00 Partly Cloudy SCT110 78.8 73.4 84% 82 29.96 0.0
04 19:35 E 3 10.00 Thunderstorm in Vicinity CLR 80.6 73.4 79% 85 29.95 0.0
04 19:15 E 3 10.00 Fair CLR 80.6 71.6 74% 85 29.92 0.0
04 18:55 Calm 10.00 Thunderstorm in Vicinity CLR 80.6 71.6 74% 85 29.94 0.0
04 18:35 SW 5 10.00 Thunderstorm in Vicinity SCT100 80.6 71.6 74% 85 29.94 0.0
04 18:15 SW 10 G 16 10.00 Mostly Cloudy SCT055 SCT065 BKN100 80.6 71.6 74% 85 29.95 0.0
04 17:55 SW 16 G 21 10.00 Overcast SCT050 BKN065 OVC075 84.2 71.6 66% 90 29.96 0.0
04 17:35 S 5 10.00 Overcast SCT065 BKN075 OVC110 87.8 73.4 62% 96 29.95 0.0
04 17:15 S 3 10.00 Overcast OVC110 87.8 73.4 62% 96 29.95 0.0
04 16:55 Calm 10.00 Overcast SCT080 OVC100 87.8 73.4 62% 96 29.95 0.0
04 16:35 Calm 10.00 Thunderstorm in Vicinity SCT080 OVC090 87.8 73.4 62% 96 29.95 0.0
04 16:15 Calm 10.00 Overcast SCT070 OVC095 87.8 71.6 59% 94 29.95 0.0
04 15:55 SE 5 10.00 Mostly Cloudy SCT070 BKN085 89.6 71.6 55% 96 29.95 0.0
04 15:35 Calm 10.00 Overcast BKN070 OVC085 87.8 71.6 59% 94 29.95 0.0
04 15:15 E 3 10.00 Overcast SCT038 BKN070 OVC095 87.8 69.8 55% 93 29.96 0.0
04 14:55 E 7 10.00 Mostly Cloudy SCT036 SCT041 BKN090 87.8 71.6 59% 94 29.96 0.0
04 14:35 E 6 10.00 Partly Cloudy SCT036 SCT050 SCT075 87.8 71.6 59% 94 29.97 0.0
04 14:15 SE 5 10.00 Partly Cloudy SCT038 SCT048 SCT065 87.8 71.6 59% 94 29.98 0.0
04 13:55 Calm 10.00 Fair CLR 89.6 69.8 52% 95 29.99 0.0
04 13:35 Calm 4.00 Partly Cloudy with Haze SCT002 SCT028 SCT036 87.8 69.8 55% 93 30 0.0
04 13:15 Calm 7.00 Partly Cloudy SCT029 SCT034 SCT041 86 71.6 62% 92 30.02 0.0
04 12:55 Calm 7.00 Mostly Cloudy BKN029 BKN034 BKN041 86 71.6 62% 92 30.02 0.0
04 12:35 Calm 10.00 Mostly Cloudy SCT027 SCT032 BKN039 86 71.6 62% 92 30.03 0.0
04 12:15 E 5 10.00 Mostly Cloudy SCT023 SCT030 BKN039 86 71.6 62% 92 30.03 0.0
04 11:55 S 3 10.00 Partly Cloudy SCT023 SCT032 84.2 71.6 66% 90 30.03 0.0
04 11:35 Calm 10.00 Partly Cloudy SCT021 SCT026 SCT034 82.4 73.4 74% 88 30.03 0.0
04 11:15 S 3 10.00 Mostly Cloudy SCT014 BKN021 82.4 73.4 74% 88 30.02 0.0
04 10:55 Calm 7.00 Mostly Cloudy SCT012 BKN019 80.6 73.4 79% 85 30.02 0.0
04 10:35 Calm 7.00 Overcast BKN009 OVC015 78.8 73.4 84% 82 30.01 0.0
04 10:15 Calm 10.00 Overcast OVC007 78.8 73.4 84% 82 30.02 0.0
04 09:55 Calm 5.00 Fog/Mist OVC007 77 73.4 89% 78 30.01 0.0
04 09:35 Calm 7.00 Overcast OVC005 77 71.6 83% 78 30.01 0.0
04 09:15 Calm 10.00 Overcast OVC005 77 71.6 83% 78 30 0.0
04 08:55 Calm 7.00 Overcast OVC005 75.2 71.6 89% 75 30 0.0
04 08:35 E 5 7.00 Overcast OVC005 75.2 71.6 89% 75 30 0.0
04 08:15 E 3 7.00 Overcast OVC005 73.4 71.6 94% 30 0.0
04 07:55 Calm 7.00 Overcast OVC005 73.4 71.6 94% 30 0.0
04 07:35 NE 3 10.00 Overcast OVC005 73.4 71.6 94% 29.99 0.0
04 07:15 Calm 10.00 Overcast OVC007 73.4 71.6 94% 29.99 0.0
04 06:55 Calm 10.00 Overcast BKN007 BKN010 OVC021 71.6 69.8 94% 29.98 0.0
04 06:35 Calm 10.00 Mostly Cloudy SCT007 BKN019 BKN024 71.6 69.8 94% 29.98 0.0
04 06:15 Calm 10.00 Mostly Cloudy BKN017 BKN029 71.6 69.8 94% 29.98 0.0
04 05:55 Calm 10.00 Partly Cloudy SCT017 SCT027 71.6 69.8 94% 29.98 0.0
04 05:35 Calm 10.00 Partly Cloudy SCT027 73.4 71.6 94% 29.98 0.0
04 05:15 Calm 10.00 Partly Cloudy SCT023 73.4 71.6 94% 29.98 0.0
04 04:55 NE 3 10.00 Partly Cloudy SCT023 SCT043 73.4 71.6 94% 29.97 0.0
04 04:35 Calm 10.00 Overcast OVC043 73.4 71.6 94% 29.97 0.0
04 04:15 Calm 10.00 Mostly Cloudy BKN039 73.4 71.6 94% 29.97 0.0
04 03:55 Calm 10.00 Partly Cloudy SCT035 73.4 71.6 94% 29.97 0.0
04 03:35 Calm 10.00 Partly Cloudy SCT033 73.4 71.6 94% 29.98 0.0
04 03:15 Calm 10.00 Fair CLR 73.4 71.6 94% 29.97 0.0
04 02:55 Calm 10.00 Fair CLR 73.4 71.6 94% 29.98 0.0
04 02:35 Calm 10.00 Fair CLR 73.4 71.6 94% 29.98 0.0
04 02:15 Calm 10.00 Partly Cloudy SCT043 73.4 71.6 94% 29.98 0.0
04 01:55 Calm 10.00 Mostly Cloudy BKN043 BKN060 75.2 71.6 89% 75 29.98 0.0
04 01:35 Calm 10.00 Mostly Cloudy BKN060 75.2 71.6 89% 75 29.99 0.0
04 01:15 Calm 10.00 Partly Cloudy SCT060 SCT080 75.2 71.6 89% 75 29.99 0.0
04 00:55 Calm 10.00 Partly Cloudy SCT049 SCT080 77 71.6 83% 78 30 0.0
04 00:35 Calm 10.00 Mostly Cloudy SCT049 SCT070 BKN080 77 73.4 89% 78 30 0.0
04 00:15 Calm 10.00 Overcast BKN060 OVC080 77 73.4 89% 78 30 0.0
03 23:55 Calm 10.00 Overcast OVC060 77 73.4 89% 78 30 0.0
03 23:35 Calm 10.00 Partly Cloudy SCT065 SCT070 77 73.4 89% 78 30 0.0
03 23:15 Calm 10.00 Partly Cloudy SCT065 77 73.4 89% 78 29.99 0.0
03 22:55 Calm 10.00 Fair CLR 77 73.4 89% 78 29.99 0.0
03 22:35 Calm 10.00 Fair CLR 77 73.4 89% 78 29.99 0.0
03 22:15 Calm 10.00 Partly Cloudy SCT120 78.8 73.4 84% 82 29.98 0.0
03 21:55 Calm 10.00 Light Rain SCT080 SCT100 BKN120 78.8 73.4 84% 82 29.98 0.0
03 21:35 S 5 10.00 Light Rain SCT080 SCT095 SCT110 80.6 71.6 74% 85 29.97 0.0
03 21:15 SE 3 10.00 Fair CLR 80.6 71.6 74% 85 29.96 0.0
03 20:55 Calm 10.00 Fair CLR 80.6 71.6 74% 85 29.95 0.0
03 20:35 Calm 10.00 Fair CLR 80.6 71.6 74% 85 29.95 0.0
03 20:15 Calm 10.00 Fair CLR 82.4 71.6 70% 87 29.95 0.0
03 19:55 Calm 10.00 Fair CLR 84.2 71.6 66% 90 29.95 0.0
03 19:35 Calm 10.00 Fair CLR 87.8 71.6 59% 94 29.94 0.0
03 19:15 Calm 10.00 Fair CLR 89.6 68 49% 93 29.95 0.0
03 18:55 E 3 10.00 Fair CLR 89.6 68 49% 93 29.96 0.0
03 18:35 E 6 10.00 Fair CLR 89.6 68 49% 93 29.95 0.0
03 18:15 E 6 10.00 Partly Cloudy SCT055 SCT070 91.4 66.2 44% 94 29.94 0.0
03 17:55 NE 7 10.00 Partly Cloudy SCT055 SCT070 91.4 66.2 44% 94 29.95 0.0
03 17:35 E 8 10.00 Partly Cloudy SCT055 91.4 66.2 44% 94 29.95 0.0
03 17:15 NE 8 10.00 Partly Cloudy SCT055 91.4 66.2 44% 94 29.95 0.0
03 16:55 E 5 10.00 Partly Cloudy SCT050 91.4 64.4 41% 93 29.96 0.0
03 16:35 E 8 10.00 Partly Cloudy SCT050 91.4 68 46% 96 29.97 0.0
03 16:15 E 5 10.00 Partly Cloudy SCT055 89.6 66.2 46% 92 29.97 0.0
03 15:55 E 6 10.00 Partly Cloudy SCT049 SCT060 89.6 68 49% 93 29.98 0.0
03 15:35 E 8 10.00 Fair CLR 91.4 66.2 44% 94 29.98 0.0
03 15:15 E 3 10.00 Partly Cloudy SCT050 SCT060 89.6 68 49% 93 29.99 0.0
03 14:55 NE 7 10.00 Mostly Cloudy BKN048 BKN050 89.6 68 49% 93 30 0.0
03 14:35 E 7 10.00 Partly Cloudy SCT050 91.4 68 46% 96 30.01 0.0
03 14:15 E 7 10.00 Partly Cloudy SCT048 SCT050 89.6 68 49% 93 30.02 0.0
03 13:55 E 9 10.00 Partly Cloudy SCT045 89.6 68 49% 93 30.02 0.0
03 13:35 NE 8 10.00 Partly Cloudy SCT045 89.6 68 49% 93 30.02 0.0
03 13:15 E 7 G 10 10.00 Partly Cloudy SCT042 89.6 68 49% 93 30.03 0.0
03 12:55 E 8 10.00 Partly Cloudy SCT038 89.6 68 49% 93 30.03 0.0
03 12:35 NE 7 10.00 Partly Cloudy SCT038 87.8 68 52% 91 30.04 0.0
03 12:15 NE 9 10.00 Fair CLR 87.8 69.8 55% 93 30.04 0.0
03 11:55 E 8 10.00 Fair CLR 87.8 69.8 55% 93 30.05 0.0
03 11:35 E 9 10.00 Fair CLR 86 69.8 59% 91 30.05 0.0
03 11:15 Calm 10.00 Fair CLR 86 71.6 62% 92 30.05 0.0
Date Time (edt) Wind (mph) Vis. (mi.) Weather Sky Cond. Air Dwpt Max. Min. Relative Humidity Wind Chill (°F) Heat Index (°F) altimeter (in) sea level (mb) 1 hr 3 hr 6 hr
6 hour
Temperature (ºF) Pressure Precipitation (in)